map of JDO home
Great Circle Mapper logo
JDO - Airport
Location
City:  Juazeiro do Norte, Ceará, Brazil
Name:Regional do Cariri
ICAO / IATA:SBJU / JDO

Details
Type:Airport (Aerodrome, Airfield)
Latitude:7°13'08"S (-7.218957)
Longitude:39°16'12"W (-39.270099)
Datum:WGS 1984
Elevation:1392 ft (424 m)
Runways:1
Longest:5905 × 148 ft (1800 × 45 m), paved

Time
Time Zone:UTC-3
Local Time:

Weather
METAR:SBJU 230500Z 10005KT 9999 FEW020 29/18 Q1016

Related Locations
Nearby:
Farthest:ULI: 12229 mi / 19681 km
Falalop Island, Ulithi Atoll, YAP, FM

Find:

   beyond  
but within

Other Information
Maps:
NOTAMs:
Links:
Sources:

  
flag of Brazil
flag of Ceará
  

Sectional Chart

Flight Planning
at skyvector.com

Satellite Image

Google Maps Satellite View

 

Copyright © 2004-2014 Karl L. Swartz. All rights reserved.
The Great Circle Mapper name and logo are trademarks of the Great Circle Mapper.
All other trademarks mentioned herein belong to their respective owners.
Please see credits for attibutions and further copyright information.

  Follow gcmap on Facebook Follow gcmap on Twitter

hCard Microformat

Geo Microformat